sensor_id;sensor_type;location;lat;lon;timestamp;P1;durP1;ratioP1;P2;durP2;ratioP2
68108;SDS011;54893;49.864;19.084;2024-01-15T00:03:00;10.93;;;3.90;;
68108;SDS011;54893;49.864;19.084;2024-01-15T00:08:00;9.57;;;4.23;;
68108;SDS011;54893;49.864;19.084;2024-01-15T00:13:01;10.70;;;3.87;;
68108;SDS011;54893;49.864;19.084;2024-01-15T00:18:01;11.17;;;3.37;;
68108;SDS011;54893;49.864;19.084;2024-01-15T00:23:02;10.97;;;3.90;;
68108;SDS011;54893;49.864;19.084;2024-01-15T00:28:02;10.20;;;3.67;;
68108;SDS011;54893;49.864;19.084;2024-01-15T00:33:03;8.93;;;3.78;;
68108;SDS011;54893;49.864;19.084;2024-01-15T00:38:03;7.67;;;3.10;;
68108;SDS011;54893;49.864;19.084;2024-01-15T00:43:04;10.23;;;3.67;;
68108;SDS011;54893;49.864;19.084;2024-01-15T00:48:04;7.73;;;3.07;;
68108;SDS011;54893;49.864;19.084;2024-01-15T00:53:05;10.80;;;3.73;;
68108;SDS011;54893;49.864;19.084;2024-01-15T00:58:05;7.47;;;2.93;;
68108;SDS011;54893;49.864;19.084;2024-01-15T01:03:05;8.47;;;3.10;;
68108;SDS011;54893;49.864;19.084;2024-01-15T01:08:06;10.10;;;3.83;;
68108;SDS011;54893;49.864;19.084;2024-01-15T01:13:06;5.47;;;2.20;;
68108;SDS011;54893;49.864;19.084;2024-01-15T01:18:07;7.03;;;2.40;;
68108;SDS011;54893;49.864;19.084;2024-01-15T01:23:07;9.90;;;3.37;;
68108;SDS011;54893;49.864;19.084;2024-01-15T01:28:07;10.30;;;2.97;;
68108;SDS011;54893;49.864;19.084;2024-01-15T01:33:08;6.00;;;2.47;;
68108;SDS011;54893;49.864;19.084;2024-01-15T01:38:08;9.27;;;3.07;;
68108;SDS011;54893;49.864;19.084;2024-01-15T01:43:09;6.87;;;2.03;;
68108;SDS011;54893;49.864;19.084;2024-01-15T01:48:10;7.97;;;3.13;;
68108;SDS011;54893;49.864;19.084;2024-01-15T01:53:10;6.05;;;2.08;;
68108;SDS011;54893;49.864;19.084;2024-01-15T01:58:11;6.03;;;1.67;;
68108;SDS011;54893;49.864;19.084;2024-01-15T02:03:11;7.10;;;1.77;;
68108;SDS011;54893;49.864;19.084;2024-01-15T02:08:12;5.90;;;1.97;;
68108;SDS011;54893;49.864;19.084;2024-01-15T02:13:12;4.97;;;1.97;;
68108;SDS011;54893;49.864;19.084;2024-01-15T02:18:13;5.60;;;1.87;;
68108;SDS011;54893;49.864;19.084;2024-01-15T02:23:14;4.87;;;2.13;;
68108;SDS011;54893;49.864;19.084;2024-01-15T02:28:15;4.97;;;2.08;;
68108;SDS011;54893;49.864;19.084;2024-01-15T02:33:17;5.65;;;1.98;;
68108;SDS011;54893;49.864;19.084;2024-01-15T02:38:17;5.37;;;1.77;;
68108;SDS011;54893;49.864;19.084;2024-01-15T02:43:17;5.57;;;1.90;;
68108;SDS011;54893;49.864;19.084;2024-01-15T02:48:19;7.55;;;2.50;;
68108;SDS011;54893;49.864;19.084;2024-01-15T02:53:19;6.33;;;2.00;;
68108;SDS011;54893;49.864;19.084;2024-01-15T02:58:20;8.57;;;3.30;;
68108;SDS011;54893;49.864;19.084;2024-01-15T03:03:21;7.23;;;3.10;;
68108;SDS011;54893;49.864;19.084;2024-01-15T03:08:21;7.13;;;2.20;;
68108;SDS011;54893;49.864;19.084;2024-01-15T03:13:22;7.38;;;3.03;;
68108;SDS011;54893;49.864;19.084;2024-01-15T03:18:23;7.33;;;2.67;;
68108;SDS011;54893;49.864;19.084;2024-01-15T03:23:23;6.93;;;3.00;;
68108;SDS011;54893;49.864;19.084;2024-01-15T03:28:23;7.60;;;2.17;;
68108;SDS011;54893;49.864;19.084;2024-01-15T03:33:24;7.57;;;2.70;;
68108;SDS011;54893;49.864;19.084;2024-01-15T03:38:24;5.63;;;1.80;;
68108;SDS011;54893;49.864;19.084;2024-01-15T03:43:25;5.13;;;1.97;;
68108;SDS011;54893;49.864;19.084;2024-01-15T03:48:26;7.72;;;2.53;;
68108;SDS011;54893;49.864;19.084;2024-01-15T03:53:27;7.27;;;2.87;;
68108;SDS011;54893;49.864;19.084;2024-01-15T03:58:27;6.10;;;2.50;;
68108;SDS011;54893;49.864;19.084;2024-01-15T04:03:27;7.57;;;2.30;;
68108;SDS011;54893;49.864;19.084;2024-01-15T04:08:28;6.83;;;2.90;;
68108;SDS011;54893;49.864;19.084;2024-01-15T04:13:28;7.13;;;2.50;;
68108;SDS011;54893;49.864;19.084;2024-01-15T04:18:29;6.80;;;2.20;;
68108;SDS011;54893;49.864;19.084;2024-01-15T04:23:29;5.83;;;1.63;;
68108;SDS011;54893;49.864;19.084;2024-01-15T04:28:29;7.17;;;2.17;;
68108;SDS011;54893;49.864;19.084;2024-01-15T04:33:30;7.30;;;2.97;;
68108;SDS011;54893;49.864;19.084;2024-01-15T04:38:30;7.07;;;2.33;;
68108;SDS011;54893;49.864;19.084;2024-01-15T04:43:30;7.40;;;2.60;;
68108;SDS011;54893;49.864;19.084;2024-01-15T04:48:31;6.40;;;2.17;;
68108;SDS011;54893;49.864;19.084;2024-01-15T04:53:31;7.50;;;2.20;;
68108;SDS011;54893;49.864;19.084;2024-01-15T04:58:33;5.60;;;1.88;;
68108;SDS011;54893;49.864;19.084;2024-01-15T05:03:33;3.83;;;1.43;;
68108;SDS011;54893;49.864;19.084;2024-01-15T05:08:33;4.20;;;1.50;;
68108;SDS011;54893;49.864;19.084;2024-01-15T05:13:34;5.20;;;1.80;;
68108;SDS011;54893;49.864;19.084;2024-01-15T05:18:34;5.80;;;1.63;;
68108;SDS011;54893;49.864;19.084;2024-01-15T05:23:37;4.55;;;1.67;;
68108;SDS011;54893;49.864;19.084;2024-01-15T05:28:37;4.17;;;1.50;;
68108;SDS011;54893;49.864;19.084;2024-01-15T05:33:37;6.87;;;2.10;;
68108;SDS011;54893;49.864;19.084;2024-01-15T05:38:38;5.55;;;1.73;;
68108;SDS011;54893;49.864;19.084;2024-01-15T05:43:38;5.60;;;2.10;;
68108;SDS011;54893;49.864;19.084;2024-01-15T05:48:44;4.77;;;1.93;;
68108;SDS011;54893;49.864;19.084;2024-01-15T05:53:47;6.80;;;1.60;;
68108;SDS011;54893;49.864;19.084;2024-01-15T05:58:48;5.23;;;1.90;;
68108;SDS011;54893;49.864;19.084;2024-01-15T06:03:48;3.80;;;1.27;;
68108;SDS011;54893;49.864;19.084;2024-01-15T06:08:48;5.83;;;2.47;;
68108;SDS011;54893;49.864;19.084;2024-01-15T06:13:49;7.00;;;1.97;;
68108;SDS011;54893;49.864;19.084;2024-01-15T06:18:49;5.63;;;1.73;;
68108;SDS011;54893;49.864;19.084;2024-01-15T06:23:50;6.83;;;2.10;;
68108;SDS011;54893;49.864;19.084;2024-01-15T06:28:50;6.07;;;2.07;;
68108;SDS011;54893;49.864;19.084;2024-01-15T06:33:50;6.23;;;2.20;;
68108;SDS011;54893;49.864;19.084;2024-01-15T06:38:51;6.93;;;2.00;;
68108;SDS011;54893;49.864;19.084;2024-01-15T06:43:51;6.20;;;2.70;;
68108;SDS011;54893;49.864;19.084;2024-01-15T06:48:51;7.83;;;2.60;;
68108;SDS011;54893;49.864;19.084;2024-01-15T06:53:52;6.77;;;2.03;;
68108;SDS011;54893;49.864;19.084;2024-01-15T06:58:52;8.47;;;3.33;;
68108;SDS011;54893;49.864;19.084;2024-01-15T07:03:53;7.77;;;3.33;;
68108;SDS011;54893;49.864;19.084;2024-01-15T07:08:53;7.90;;;3.00;;
68108;SDS011;54893;49.864;19.084;2024-01-15T07:13:53;8.13;;;2.80;;
68108;SDS011;54893;49.864;19.084;2024-01-15T07:18:54;9.93;;;4.17;;
68108;SDS011;54893;49.864;19.084;2024-01-15T07:23:54;11.70;;;4.27;;
68108;SDS011;54893;49.864;19.084;2024-01-15T07:28:55;9.77;;;4.17;;
68108;SDS011;54893;49.864;19.084;2024-01-15T07:33:55;5.70;;;2.47;;
68108;SDS011;54893;49.864;19.084;2024-01-15T07:38:56;10.87;;;4.37;;
68108;SDS011;54893;49.864;19.084;2024-01-15T07:43:57;8.87;;;3.77;;
68108;SDS011;54893;49.864;19.084;2024-01-15T07:48:57;11.10;;;4.22;;
68108;SDS011;54893;49.864;19.084;2024-01-15T07:53:58;9.27;;;4.03;;
68108;SDS011;54893;49.864;19.084;2024-01-15T07:58:58;12.50;;;4.63;;
68108;SDS011;54893;49.864;19.084;2024-01-15T08:03:59;10.63;;;4.33;;
68108;SDS011;54893;49.864;19.084;2024-01-15T08:08:59;11.23;;;4.40;;
68108;SDS011;54893;49.864;19.084;2024-01-15T08:13:59;12.40;;;4.20;;
68108;SDS011;54893;49.864;19.084;2024-01-15T08:19:00;11.03;;;4.70;;
68108;SDS011;54893;49.864;19.084;2024-01-15T08:24:01;14.83;;;5.63;;
68108;SDS011;54893;49.864;19.084;2024-01-15T08:29:02;12.20;;;5.53;;
68108;SDS011;54893;49.864;19.084;2024-01-15T08:34:03;13.90;;;5.97;;
68108;SDS011;54893;49.864;19.084;2024-01-15T08:39:03;16.75;;;7.03;;
68108;SDS011;54893;49.864;19.084;2024-01-15T08:44:04;15.93;;;5.65;;
68108;SDS011;54893;49.864;19.084;2024-01-15T08:49:05;14.90;;;5.70;;
68108;SDS011;54893;49.864;19.084;2024-01-15T08:54:06;15.02;;;5.80;;
68108;SDS011;54893;49.864;19.084;2024-01-15T08:59:08;16.03;;;6.70;;
68108;SDS011;54893;49.864;19.084;2024-01-15T09:04:08;18.10;;;6.93;;
68108;SDS011;54893;49.864;19.084;2024-01-15T09:09:09;13.67;;;5.70;;
68108;SDS011;54893;49.864;19.084;2024-01-15T09:14:10;16.75;;;6.15;;
68108;SDS011;54893;49.864;19.084;2024-01-15T09:19:10;13.30;;;5.13;;
68108;SDS011;54893;49.864;19.084;2024-01-15T09:24:11;19.27;;;7.77;;
68108;SDS011;54893;49.864;19.084;2024-01-15T09:29:11;17.03;;;8.27;;
68108;SDS011;54893;49.864;19.084;2024-01-15T09:34:11;19.77;;;9.03;;
68108;SDS011;54893;49.864;19.084;2024-01-15T09:39:12;17.53;;;7.07;;
68108;SDS011;54893;49.864;19.084;2024-01-15T09:44:12;17.80;;;7.10;;
68108;SDS011;54893;49.864;19.084;2024-01-15T09:49:13;19.20;;;8.30;;
68108;SDS011;54893;49.864;19.084;2024-01-15T09:54:13;20.73;;;8.57;;
68108;SDS011;54893;49.864;19.084;2024-01-15T09:59:17;16.10;;;7.50;;
68108;SDS011;54893;49.864;19.084;2024-01-15T10:04:18;18.50;;;7.07;;
68108;SDS011;54893;49.864;19.084;2024-01-15T10:09:19;21.63;;;9.10;;
68108;SDS011;54893;49.864;19.084;2024-01-15T10:14:19;18.40;;;7.13;;
68108;SDS011;54893;49.864;19.084;2024-01-15T10:19:19;20.80;;;10.40;;
68108;SDS011;54893;49.864;19.084;2024-01-15T10:24:20;21.00;;;8.30;;
68108;SDS011;54893;49.864;19.084;2024-01-15T10:29:20;18.87;;;9.47;;
68108;SDS011;54893;49.864;19.084;2024-01-15T10:34:20;20.47;;;8.97;;
68108;SDS011;54893;49.864;19.084;2024-01-15T10:39:22;21.40;;;9.73;;
68108;SDS011;54893;49.864;19.084;2024-01-15T10:44:23;17.15;;;7.70;;
68108;SDS011;54893;49.864;19.084;2024-01-15T10:49:23;18.63;;;8.40;;
68108;SDS011;54893;49.864;19.084;2024-01-15T10:54:26;20.97;;;9.40;;
68108;SDS011;54893;49.864;19.084;2024-01-15T10:59:27;18.30;;;8.57;;
68108;SDS011;54893;49.864;19.084;2024-01-15T11:04:29;19.03;;;8.90;;
68108;SDS011;54893;49.864;19.084;2024-01-15T11:09:32;20.70;;;9.05;;
68108;SDS011;54893;49.864;19.084;2024-01-15T11:19:46;21.33;;;8.95;;
68108;SDS011;54893;49.864;19.084;2024-01-15T11:24:50;17.58;;;6.78;;
68108;SDS011;54893;49.864;19.084;2024-01-15T11:29:51;19.07;;;9.43;;
68108;SDS011;54893;49.864;19.084;2024-01-15T11:35:04;18.98;;;8.88;;
68108;SDS011;54893;49.864;19.084;2024-01-15T11:40:06;19.27;;;7.77;;
68108;SDS011;54893;49.864;19.084;2024-01-15T11:45:11;23.33;;;11.00;;
68108;SDS011;54893;49.864;19.084;2024-01-15T11:50:11;22.53;;;9.80;;
68108;SDS011;54893;49.864;19.084;2024-01-15T11:55:14;20.70;;;8.80;;
68108;SDS011;54893;49.864;19.084;2024-01-15T12:00:20;19.23;;;7.63;;
68108;SDS011;54893;49.864;19.084;2024-01-15T12:05:22;17.27;;;6.37;;
68108;SDS011;54893;49.864;19.084;2024-01-15T12:10:23;22.23;;;10.90;;
68108;SDS011;54893;49.864;19.084;2024-01-15T12:15:24;21.03;;;9.97;;
68108;SDS011;54893;49.864;19.084;2024-01-15T12:20:26;23.05;;;9.45;;
68108;SDS011;54893;49.864;19.084;2024-01-15T12:25:27;20.88;;;8.75;;
68108;SDS011;54893;49.864;19.084;2024-01-15T12:30:29;20.23;;;9.27;;
68108;SDS011;54893;49.864;19.084;2024-01-15T12:35:31;18.38;;;7.70;;
68108;SDS011;54893;49.864;19.084;2024-01-15T12:40:33;17.47;;;7.20;;
68108;SDS011;54893;49.864;19.084;2024-01-15T12:45:37;17.80;;;7.28;;
68108;SDS011;54893;49.864;19.084;2024-01-15T12:50:37;17.23;;;8.07;;
68108;SDS011;54893;49.864;19.084;2024-01-15T12:55:38;16.43;;;6.37;;
68108;SDS011;54893;49.864;19.084;2024-01-15T13:00:38;16.37;;;6.13;;
68108;SDS011;54893;49.864;19.084;2024-01-15T13:05:38;16.77;;;7.43;;
68108;SDS011;54893;49.864;19.084;2024-01-15T13:10:40;18.48;;;7.97;;
68108;SDS011;54893;49.864;19.084;2024-01-15T13:15:42;16.63;;;6.68;;
68108;SDS011;54893;49.864;19.084;2024-01-15T13:20:42;17.03;;;5.10;;
68108;SDS011;54893;49.864;19.084;2024-01-15T13:25:43;16.13;;;5.33;;
68108;SDS011;54893;49.864;19.084;2024-01-15T13:30:43;15.87;;;7.27;;
68108;SDS011;54893;49.864;19.084;2024-01-15T13:35:43;15.10;;;6.67;;
68108;SDS011;54893;49.864;19.084;2024-01-15T13:40:44;16.13;;;7.30;;
68108;SDS011;54893;49.864;19.084;2024-01-15T13:45:45;14.57;;;6.43;;
68108;SDS011;54893;49.864;19.084;2024-01-15T13:50:46;20.33;;;8.53;;
68108;SDS011;54893;49.864;19.084;2024-01-15T13:55:48;17.33;;;5.60;;
68108;SDS011;54893;49.864;19.084;2024-01-15T14:00:48;19.17;;;8.30;;
68108;SDS011;54893;49.864;19.084;2024-01-15T14:05:48;18.20;;;6.87;;
68108;SDS011;54893;49.864;19.084;2024-01-15T14:10:51;23.33;;;9.03;;
68108;SDS011;54893;49.864;19.084;2024-01-15T14:15:52;21.58;;;7.82;;
68108;SDS011;54893;49.864;19.084;2024-01-15T14:20:52;17.67;;;6.93;;
68108;SDS011;54893;49.864;19.084;2024-01-15T14:25:55;21.13;;;7.47;;
68108;SDS011;54893;49.864;19.084;2024-01-15T14:30:56;20.38;;;8.20;;
68108;SDS011;54893;49.864;19.084;2024-01-15T14:35:59;18.27;;;7.00;;
68108;SDS011;54893;49.864;19.084;2024-01-15T14:40:59;21.98;;;8.80;;
68108;SDS011;54893;49.864;19.084;2024-01-15T14:46:00;19.40;;;9.57;;
68108;SDS011;54893;49.864;19.084;2024-01-15T14:51:00;20.70;;;8.93;;
68108;SDS011;54893;49.864;19.084;2024-01-15T14:56:00;18.65;;;8.35;;
68108;SDS011;54893;49.864;19.084;2024-01-15T15:01:03;21.23;;;7.50;;
68108;SDS011;54893;49.864;19.084;2024-01-15T15:06:04;20.70;;;7.33;;
68108;SDS011;54893;49.864;19.084;2024-01-15T15:11:04;18.90;;;7.50;;
68108;SDS011;54893;49.864;19.084;2024-01-15T15:16:05;20.03;;;8.80;;
68108;SDS011;54893;49.864;19.084;2024-01-15T15:21:06;21.98;;;9.38;;
68108;SDS011;54893;49.864;19.084;2024-01-15T15:26:07;23.83;;;9.32;;
68108;SDS011;54893;49.864;19.084;2024-01-15T15:31:07;21.87;;;8.53;;
68108;SDS011;54893;49.864;19.084;2024-01-15T15:36:08;21.10;;;9.63;;
68108;SDS011;54893;49.864;19.084;2024-01-15T15:41:08;21.53;;;8.73;;
68108;SDS011;54893;49.864;19.084;2024-01-15T15:46:09;24.27;;;9.40;;
68108;SDS011;54893;49.864;19.084;2024-01-15T15:51:09;20.93;;;8.60;;
68108;SDS011;54893;49.864;19.084;2024-01-15T15:56:09;22.17;;;9.47;;
68108;SDS011;54893;49.864;19.084;2024-01-15T16:01:10;19.17;;;8.90;;
68108;SDS011;54893;49.864;19.084;2024-01-15T16:06:10;21.67;;;7.57;;
68108;SDS011;54893;49.864;19.084;2024-01-15T16:11:11;20.40;;;8.73;;
68108;SDS011;54893;49.864;19.084;2024-01-15T16:16:11;25.63;;;10.27;;
68108;SDS011;54893;49.864;19.084;2024-01-15T16:21:12;19.67;;;7.43;;
68108;SDS011;54893;49.864;19.084;2024-01-15T16:26:12;23.13;;;9.30;;
68108;SDS011;54893;49.864;19.084;2024-01-15T16:31:13;23.65;;;9.93;;
68108;SDS011;54893;49.864;19.084;2024-01-15T16:36:13;20.65;;;8.20;;
68108;SDS011;54893;49.864;19.084;2024-01-15T16:41:14;18.50;;;7.70;;
68108;SDS011;54893;49.864;19.084;2024-01-15T16:46:15;19.00;;;7.87;;
68108;SDS011;54893;49.864;19.084;2024-01-15T16:51:15;20.03;;;8.67;;
68108;SDS011;54893;49.864;19.084;2024-01-15T16:56:16;20.97;;;8.57;;
68108;SDS011;54893;49.864;19.084;2024-01-15T17:01:16;21.17;;;8.37;;
68108;SDS011;54893;49.864;19.084;2024-01-15T17:06:16;22.33;;;9.43;;
68108;SDS011;54893;49.864;19.084;2024-01-15T17:11:17;18.60;;;8.53;;
68108;SDS011;54893;49.864;19.084;2024-01-15T17:16:17;23.80;;;10.47;;
68108;SDS011;54893;49.864;19.084;2024-01-15T17:21:18;22.37;;;8.37;;
68108;SDS011;54893;49.864;19.084;2024-01-15T17:26:18;19.57;;;6.97;;
68108;SDS011;54893;49.864;19.084;2024-01-15T17:31:19;19.83;;;9.10;;
68108;SDS011;54893;49.864;19.084;2024-01-15T17:36:20;18.70;;;8.23;;
68108;SDS011;54893;49.864;19.084;2024-01-15T17:41:20;19.37;;;8.80;;
68108;SDS011;54893;49.864;19.084;2024-01-15T17:46:20;18.90;;;8.07;;
68108;SDS011;54893;49.864;19.084;2024-01-15T17:51:21;21.03;;;7.50;;
68108;SDS011;54893;49.864;19.084;2024-01-15T17:56:21;18.30;;;8.20;;
68108;SDS011;54893;49.864;19.084;2024-01-15T18:01:21;16.07;;;6.20;;
68108;SDS011;54893;49.864;19.084;2024-01-15T18:06:22;23.20;;;8.07;;
68108;SDS011;54893;49.864;19.084;2024-01-15T18:11:22;14.40;;;5.90;;
68108;SDS011;54893;49.864;19.084;2024-01-15T18:16:22;21.03;;;8.83;;
68108;SDS011;54893;49.864;19.084;2024-01-15T18:21:23;23.37;;;9.10;;
68108;SDS011;54893;49.864;19.084;2024-01-15T18:26:23;20.10;;;8.47;;
68108;SDS011;54893;49.864;19.084;2024-01-15T18:31:24;18.30;;;7.97;;
68108;SDS011;54893;49.864;19.084;2024-01-15T18:36:24;19.35;;;7.85;;
68108;SDS011;54893;49.864;19.084;2024-01-15T18:41:25;20.47;;;7.33;;
68108;SDS011;54893;49.864;19.084;2024-01-15T18:46:25;19.63;;;8.43;;
68108;SDS011;54893;49.864;19.084;2024-01-15T18:51:26;19.65;;;8.27;;
68108;SDS011;54893;49.864;19.084;2024-01-15T18:56:26;18.90;;;7.67;;
68108;SDS011;54893;49.864;19.084;2024-01-15T19:01:27;17.33;;;7.47;;
68108;SDS011;54893;49.864;19.084;2024-01-15T19:06:31;17.20;;;7.57;;
68108;SDS011;54893;49.864;19.084;2024-01-15T19:11:32;16.93;;;7.13;;
68108;SDS011;54893;49.864;19.084;2024-01-15T19:16:32;19.07;;;7.47;;
68108;SDS011;54893;49.864;19.084;2024-01-15T19:21:32;16.30;;;5.93;;
68108;SDS011;54893;49.864;19.084;2024-01-15T19:26:33;18.63;;;7.17;;
68108;SDS011;54893;49.864;19.084;2024-01-15T19:31:34;15.10;;;7.13;;
68108;SDS011;54893;49.864;19.084;2024-01-15T19:36:36;14.85;;;6.30;;
68108;SDS011;54893;49.864;19.084;2024-01-15T19:41:37;18.90;;;7.82;;
68108;SDS011;54893;49.864;19.084;2024-01-15T19:46:38;15.43;;;6.53;;
68108;SDS011;54893;49.864;19.084;2024-01-15T19:51:40;19.35;;;6.70;;
68108;SDS011;54893;49.864;19.084;2024-01-15T19:56:40;19.67;;;7.87;;
68108;SDS011;54893;49.864;19.084;2024-01-15T20:01:40;16.40;;;7.17;;
68108;SDS011;54893;49.864;19.084;2024-01-15T20:06:41;18.17;;;8.40;;
68108;SDS011;54893;49.864;19.084;2024-01-15T20:11:41;17.07;;;7.57;;
68108;SDS011;54893;49.864;19.084;2024-01-15T20:16:44;15.93;;;8.00;;
68108;SDS011;54893;49.864;19.084;2024-01-15T20:21:44;16.67;;;7.60;;
68108;SDS011;54893;49.864;19.084;2024-01-15T20:26:45;14.40;;;7.37;;
68108;SDS011;54893;49.864;19.084;2024-01-15T20:31:45;14.67;;;5.90;;
68108;SDS011;54893;49.864;19.084;2024-01-15T20:36:47;16.65;;;7.30;;
68108;SDS011;54893;49.864;19.084;2024-01-15T20:41:47;17.73;;;8.00;;
68108;SDS011;54893;49.864;19.084;2024-01-15T20:46:49;16.17;;;7.38;;
68108;SDS011;54893;49.864;19.084;2024-01-15T20:51:49;15.23;;;5.37;;
68108;SDS011;54893;49.864;19.084;2024-01-15T20:56:50;12.57;;;5.37;;
68108;SDS011;54893;49.864;19.084;2024-01-15T21:01:50;15.60;;;5.70;;
68108;SDS011;54893;49.864;19.084;2024-01-15T21:06:53;15.63;;;6.17;;
68108;SDS011;54893;49.864;19.084;2024-01-15T21:11:56;15.60;;;6.65;;
68108;SDS011;54893;49.864;19.084;2024-01-15T21:16:56;13.13;;;5.13;;
68108;SDS011;54893;49.864;19.084;2024-01-15T21:21:56;17.47;;;6.23;;
68108;SDS011;54893;49.864;19.084;2024-01-15T21:26:57;16.87;;;6.90;;
68108;SDS011;54893;49.864;19.084;2024-01-15T21:31:58;19.90;;;6.30;;
68108;SDS011;54893;49.864;19.084;2024-01-15T21:36:58;14.63;;;6.28;;
68108;SDS011;54893;49.864;19.084;2024-01-15T21:41:59;16.43;;;6.90;;
68108;SDS011;54893;49.864;19.084;2024-01-15T21:46:59;14.60;;;6.53;;
68108;SDS011;54893;49.864;19.084;2024-01-15T21:51:59;14.13;;;6.33;;
68108;SDS011;54893;49.864;19.084;2024-01-15T21:57:00;14.70;;;5.97;;
68108;SDS011;54893;49.864;19.084;2024-01-15T22:02:00;13.47;;;5.33;;
68108;SDS011;54893;49.864;19.084;2024-01-15T22:07:04;12.15;;;6.07;;
68108;SDS011;54893;49.864;19.084;2024-01-15T22:12:04;13.23;;;6.23;;
68108;SDS011;54893;49.864;19.084;2024-01-15T22:17:05;13.63;;;6.47;;
68108;SDS011;54893;49.864;19.084;2024-01-15T22:22:06;12.27;;;6.37;;
68108;SDS011;54893;49.864;19.084;2024-01-15T22:27:06;12.37;;;5.70;;
68108;SDS011;54893;49.864;19.084;2024-01-15T22:32:06;10.40;;;4.97;;
68108;SDS011;54893;49.864;19.084;2024-01-15T22:37:07;13.53;;;5.73;;
68108;SDS011;54893;49.864;19.084;2024-01-15T22:42:07;11.83;;;4.40;;
68108;SDS011;54893;49.864;19.084;2024-01-15T22:47:08;11.98;;;6.13;;
68108;SDS011;54893;49.864;19.084;2024-01-15T22:52:09;11.30;;;5.20;;
68108;SDS011;54893;49.864;19.084;2024-01-15T22:57:09;12.87;;;6.53;;
68108;SDS011;54893;49.864;19.084;2024-01-15T23:02:10;12.47;;;5.90;;
68108;SDS011;54893;49.864;19.084;2024-01-15T23:07:10;10.20;;;5.10;;
68108;SDS011;54893;49.864;19.084;2024-01-15T23:12:11;13.70;;;4.63;;
68108;SDS011;54893;49.864;19.084;2024-01-15T23:17:11;12.07;;;5.50;;
68108;SDS011;54893;49.864;19.084;2024-01-15T23:22:11;11.17;;;4.63;;
68108;SDS011;54893;49.864;19.084;2024-01-15T23:27:12;14.17;;;5.07;;
68108;SDS011;54893;49.864;19.084;2024-01-15T23:32:12;11.53;;;5.97;;
68108;SDS011;54893;49.864;19.084;2024-01-15T23:37:13;16.70;;;5.30;;
68108;SDS011;54893;49.864;19.084;2024-01-15T23:42:13;11.97;;;5.93;;
68108;SDS011;54893;49.864;19.084;2024-01-15T23:47:13;14.27;;;6.90;;
68108;SDS011;54893;49.864;19.084;2024-01-15T23:52:14;16.77;;;7.40;;
68108;SDS011;54893;49.864;19.084;2024-01-15T23:57:14;15.10;;;6.40;;
